Time;durP1;ratioP1;P1;durP2;ratioP2;P2;SDS_P1;SDS_P2;PMS_P1;PMS_P2;Temp;Humidity;BMP_temperature;BMP_pressure;BME280_temperature;BME280_humidity;BME280_pressure;Samples;Min_cycle;Max_cycle;Signal;HPM_P1;HPM_P2
2023/05/04 04:10:15;;;;;;;16.50;5.60;;;;;;;2.41;84.91;100922.20;102712;1288;1003467;-69
2023/05/04 04:13:03;;;;;;;13.30;5.10;;;;;;;2.52;84.64;100922.21;105606;1267;59887;-69
2023/05/04 04:15:57;;;;;;;16.20;4.80;;;;;;;2.64;84.49;100931.15;105463;1263;60080;-68
2023/05/04 04:18:45;;;;;;;13.60;4.50;;;;;;;2.72;84.31;100926.20;105220;1268;71281;-69
2023/05/04 04:21:32;;;;;;;12.80;4.70;;;;;;;2.80;84.09;100933.45;105219;1268;68519;-68
2023/05/04 04:24:19;;;;;;;12.20;4.00;;;;;;;2.88;84.02;100935.66;105021;1265;325158;-69
2023/05/04 04:27:08;;;;;;;11.80;4.70;;;;;;;2.95;83.83;100933.50;105494;1259;59399;-68
2023/05/04 04:29:57;;;;;;;14.90;4.80;;;;;;;3.02;83.65;100933.63;104223;1263;1002918;-68
2023/05/04 04:32:45;;;;;;;20.00;5.80;;;;;;;3.10;83.64;100938.30;105249;1266;70064;-68
2023/05/04 04:35:32;;;;;;;23.00;6.40;;;;;;;3.17;83.45;100938.23;105290;1265;67654;-67
2023/05/04 04:38:20;;;;;;;15.30;5.50;;;;;;;3.24;83.28;100936.41;105198;1263;72763;-67
2023/05/04 04:41:07;;;;;;;15.80;5.20;;;;;;;3.35;82.91;100938.67;105195;1263;59865;-66
2023/05/04 04:43:56;;;;;;;14.00;5.30;;;;;;;3.49;82.61;100938.38;105314;1263;60001;-66
2023/05/04 04:46:45;;;;;;;13.70;5.20;;;;;;;3.63;82.26;100938.44;105679;1254;70317;-67
2023/05/04 04:49:32;;;;;;;14.20;4.70;;;;;;;3.78;81.96;100937.05;105647;1258;68045;-66
2023/05/04 04:52:19;;;;;;;16.50;4.90;;;;;;;3.91;81.35;100935.52;105783;1254;71211;-69
2023/05/04 04:55:09;;;;;;;13.50;4.10;;;;;;;4.04;80.49;100936.98;105876;1258;59627;-67
2023/05/04 04:57:56;;;;;;;12.40;3.90;;;;;;;4.17;79.72;100938.06;105738;1258;59261;-67
2023/05/04 05:00:44;;;;;;;11.60;3.30;;;;;;;4.31;78.27;100933.17;105627;1253;71512;-66
2023/05/04 05:03:31;;;;;;;10.60;3.40;;;;;;;4.49;77.42;100938.83;105643;1253;68006;-65
2023/05/04 05:06:19;;;;;;;10.20;3.40;;;;;;;4.67;76.31;100932.33;105756;1253;73061;-67
2023/05/04 05:09:08;;;;;;;11.30;3.70;;;;;;;4.93;75.72;100934.80;106116;1255;59331;-67
2023/05/04 05:11:55;;;;;;;11.10;3.20;;;;;;;5.28;74.87;100931.61;105971;1253;60132;-67
2023/05/04 05:14:43;;;;;;;9.40;3.30;;;;;;;5.83;73.33;100926.27;105950;1253;72381;-68
2023/05/04 05:17:30;;;;;;;11.10;3.30;;;;;;;6.80;70.21;100922.89;106065;1255;67653;-68
2023/05/04 05:20:17;;;;;;;12.80;3.80;;;;;;;8.29;67.33;100922.18;106194;1257;72539;-68
2023/05/04 05:23:04;;;;;;;10.80;3.20;;;;;;;9.97;61.16;100918.55;106254;1258;59300;-68
2023/05/04 05:25:52;;;;;;;10.00;3.10;;;;;;;11.59;56.65;100911.48;106150;1253;59137;-67
2023/05/04 05:28:40;;;;;;;9.20;2.70;;;;;;;13.22;52.67;100913.04;105779;1253;71409;-68
2023/05/04 05:31:27;;;;;;;10.40;2.90;;;;;;;14.63;47.55;100900.33;105798;1253;66842;-68
2023/05/04 05:34:15;;;;;;;12.80;3.20;;;;;;;15.86;44.60;100890.77;105604;1253;71347;-71
2023/05/04 05:37:01;;;;;;;12.20;2.50;;;;;;;17.05;41.59;100891.37;105787;1253;60267;-70
2023/05/04 05:39:48;;;;;;;11.30;2.60;;;;;;;17.94;38.29;100884.79;105793;1256;59265;-70
2023/05/04 05:42:35;;;;;;;11.80;2.30;;;;;;;18.75;36.86;100881.89;105809;1253;70095;-68
2023/05/04 05:45:22;;;;;;;10.60;2.80;;;;;;;19.43;34.61;100878.13;105787;1253;66617;-72
2023/05/04 05:48:09;;;;;;;9.60;2.40;;;;;;;20.02;32.86;100876.33;105978;1255;72732;-69
2023/05/04 05:50:56;;;;;;;11.00;2.60;;;;;;;20.50;31.71;100875.05;105799;1254;59338;-69
2023/05/04 05:53:43;;;;;;;9.70;2.80;;;;;;;21.13;30.79;100877.47;105841;1258;59258;-71
2023/05/04 05:56:31;;;;;;;9.30;2.30;;;;;;;21.69;29.88;100883.06;105606;1258;69842;-70
2023/05/04 05:59:18;;;;;;;12.10;2.60;;;;;;;22.27;28.85;100882.00;105700;1253;67950;-70
2023/05/04 06:02:05;;;;;;;11.30;3.30;;;;;;;22.50;26.97;100877.60;105741;1253;73340;-67
2023/05/04 06:04:52;;;;;;;10.20;2.70;;;;;;;22.79;27.08;100877.58;105771;1253;59685;-71
2023/05/04 06:07:39;;;;;;;10.50;2.50;;;;;;;23.11;26.53;100878.84;105600;1253;59627;-71
2023/05/04 06:10:26;;;;;;;8.30;2.10;;;;;;;23.11;25.05;100877.86;105542;1253;68976;-69
2023/05/04 06:13:13;;;;;;;10.30;2.20;;;;;;;22.81;25.27;100875.21;105621;1258;69636;-68
2023/05/04 06:16:03;;;;;;;10.50;2.50;;;;;;;22.29;25.15;100877.92;105693;1253;71059;-70
2023/05/04 06:18:50;;;;;;;7.90;1.90;;;;;;;22.27;25.78;100875.77;105596;1254;59354;-70
2023/05/04 06:21:37;;;;;;;8.70;1.90;;;;;;;22.45;25.26;100876.52;105711;1253;60064;-69
2023/05/04 06:24:25;;;;;;;8.00;1.80;;;;;;;22.58;24.78;100873.53;105712;1253;71335;-68
2023/05/04 06:27:12;;;;;;;8.20;2.00;;;;;;;22.76;24.74;100874.20;105594;1253;66689;-69
2023/05/04 06:29:59;;;;;;;8.00;1.90;;;;;;;22.78;24.31;100874.25;105525;1256;72670;-68
2023/05/04 06:32:46;;;;;;;10.50;2.00;;;;;;;22.59;24.35;100869.80;105625;1263;59291;-70
2023/05/04 06:35:33;;;;;;;9.90;2.00;;;;;;;22.40;24.09;100874.11;105207;1259;59338;-68
2023/05/04 06:38:21;;;;;;;10.20;2.00;;;;;;;21.75;25.20;100871.20;105391;1256;71473;-69
2023/05/04 06:41:08;;;;;;;9.20;2.10;;;;;;;21.50;24.80;100875.27;105476;1261;67922;-68
2023/05/04 06:43:56;;;;;;;9.30;2.30;;;;;;;21.42;24.90;100871.81;105335;1256;71387;-66
2023/05/04 06:46:45;;;;;;;9.10;1.90;;;;;;;21.62;24.86;100869.52;105521;1256;59446;-66
2023/05/04 06:49:32;;;;;;;7.10;1.60;;;;;;;22.10;24.30;100868.01;106258;1256;59428;-68
2023/05/04 06:52:20;;;;;;;9.30;1.80;;;;;;;22.41;23.80;100863.61;105938;1258;69033;-69
2023/05/04 06:55:08;;;;;;;9.60;2.00;;;;;;;22.86;23.45;100867.55;105883;1256;65764;-68
2023/05/04 06:57:54;;;;;;;8.20;2.00;;;;;;;22.98;23.04;100860.08;105420;1267;72405;-69
2023/05/04 07:00:45;;;;;;;10.80;2.30;;;;;;;22.69;23.12;100861.44;105173;1266;59324;-68
2023/05/04 07:03:31;;;;;;;12.30;2.10;;;;;;;21.92;23.75;100862.96;105270;1261;61631;-65
2023/05/04 07:06:20;;;;;;;12.00;2.10;;;;;;;22.17;24.06;100866.52;105212;1261;71447;-68
2023/05/04 07:09:07;;;;;;;8.90;2.00;;;;;;;22.76;23.65;100859.85;105534;1264;68149;-68
2023/05/04 07:11:54;;;;;;;11.50;2.20;;;;;;;23.17;22.90;100858.80;105147;1261;71419;-68
2023/05/04 07:14:40;;;;;;;7.30;1.80;;;;;;;23.06;22.55;100853.49;105079;1267;59412;-67
2023/05/04 07:17:32;;;;;;;9.80;2.10;;;;;;;23.01;22.78;100856.41;105323;1264;59943;-68
2023/05/04 07:20:20;;;;;;;11.00;2.30;;;;;;;22.93;23.13;100854.27;105253;1262;70052;-68
2023/05/04 07:23:09;;;;;;;9.00;2.00;;;;;;;23.34;22.91;100850.02;105443;1259;67816;-69
2023/05/04 07:25:57;;;;;;;10.50;2.30;;;;;;;23.76;22.51;100852.38;105280;1263;72707;-69
2023/05/04 07:28:44;;;;;;;8.70;1.90;;;;;;;24.34;22.26;100847.91;105383;1253;59317;-68
2023/05/04 07:31:31;;;;;;;7.80;1.90;;;;;;;25.03;20.87;100852.75;105664;1253;59242;-71
2023/05/04 07:34:17;;;;;;;8.90;1.90;;;;;;;25.37;19.69;100846.70;105907;1253;68954;-65
2023/05/04 07:37:06;;;;;;;8.70;1.80;;;;;;;25.59;19.79;100846.11;105976;1258;67667;-68
2023/05/04 07:39:53;;;;;;;6.90;1.70;;;;;;;26.02;19.48;100840.73;105858;1257;72389;-67
2023/05/04 07:42:39;;;;;;;8.50;1.90;;;;;;;26.34;19.34;100837.77;105857;1253;59259;-67
2023/05/04 07:45:26;;;;;;;9.70;1.80;;;;;;;26.61;18.75;100840.57;105696;1253;59982;-68
2023/05/04 07:48:13;;;;;;;8.50;1.80;;;;;;;26.86;18.17;100843.55;105640;1253;70314;-68
2023/05/04 07:50:59;;;;;;;10.90;1.80;;;;;;;26.74;17.97;100843.60;105625;1257;68274;-68
2023/05/04 07:53:47;;;;;;;10.40;2.10;;;;;;;26.73;18.23;100843.56;105563;1256;72899;-67
2023/05/04 07:56:36;;;;;;;9.60;2.00;;;;;;;26.69;18.11;100840.06;105681;1253;59344;-68
2023/05/04 07:59:22;;;;;;;8.80;1.80;;;;;;;26.68;17.70;100839.38;105661;1253;60137;-69
2023/05/04 08:02:10;;;;;;;8.50;1.70;;;;;;;26.79;17.53;100841.44;105697;1253;72040;-67
2023/05/04 08:04:57;;;;;;;8.50;1.80;;;;;;;26.67;17.17;100841.06;105689;1253;67781;-68
2023/05/04 08:07:44;;;;;;;8.10;1.90;;;;;;;26.56;17.44;100844.52;105518;1254;71869;-69
2023/05/04 08:10:35;;;;;;;9.90;1.90;;;;;;;26.71;17.61;100839.53;105938;1261;59601;-68
2023/05/04 08:13:22;;;;;;;7.50;1.90;;;;;;;26.81;17.16;100838.83;106258;1257;59155;-68
2023/05/04 08:16:09;;;;;;;9.80;2.00;;;;;;;26.89;17.25;100836.41;105880;1259;71160;-67
2023/05/04 08:18:58;;;;;;;7.40;1.60;;;;;;;26.86;17.43;100833.27;105766;1255;67080;-69
2023/05/04 08:21:45;;;;;;;8.20;1.80;;;;;;;26.72;17.41;100832.36;105943;1253;71189;-70
2023/05/04 08:24:33;;;;;;;7.80;1.80;;;;;;;26.82;17.57;100832.49;105974;1253;59598;-72
2023/05/04 08:27:21;;;;;;;7.70;1.60;;;;;;;26.76;17.54;100830.88;105798;1261;59671;-75
2023/05/04 08:30:09;;;;;;;8.90;2.10;;;;;;;26.90;17.47;100829.27;106107;1257;70298;-78
2023/05/04 08:32:59;;;;;;;7.70;1.90;;;;;;;26.59;17.61;100826.48;105969;1256;68110;-74
2023/05/04 08:35:46;;;;;;;9.80;2.00;;;;;;;26.30;17.80;100828.35;105687;1257;71143;-74
2023/05/04 08:38:33;;;;;;;9.10;2.10;;;;;;;26.32;17.95;100829.16;105900;1253;59215;-77
2023/05/04 08:41:24;;;;;;;9.20;2.10;;;;;;;26.47;18.47;100831.47;105818;1253;60329;-74
2023/05/04 08:44:11;;;;;;;8.50;1.80;;;;;;;26.59;18.05;100833.05;105640;1261;71591;-74
2023/05/04 08:47:03;;;;;;;7.00;1.80;;;;;;;26.62;18.06;100836.38;105898;1259;67938;-73
2023/05/04 08:49:51;;;;;;;10.50;2.40;;;;;;;26.83;17.74;100837.28;106631;1259;73003;-73
2023/05/04 08:52:46;;;;;;;8.70;1.90;;;;;;;26.85;17.61;100836.83;106040;1259;59388;-75
2023/05/04 08:55:36;;;;;;;8.80;2.20;;;;;;;27.06;17.42;100830.95;105893;1258;60434;-77
2023/05/04 08:58:25;;;;;;;10.50;1.80;;;;;;;27.52;17.12;100830.95;106187;1258;71241;-76
2023/05/04 09:01:15;;;;;;;8.60;2.00;;;;;;;27.47;17.41;100832.05;105910;1260;66779;-78
2023/05/04 09:04:04;;;;;;;8.40;1.90;;;;;;;27.46;17.78;100828.86;105775;1262;73229;-75
2023/05/04 09:06:53;;;;;;;9.70;2.60;;;;;;;27.42;17.45;100825.67;105610;1257;59478;-75
2023/05/04 09:09:41;;;;;;;11.40;2.10;;;;;;;27.50;17.23;100819.56;105537;1257;59426;-73
2023/05/04 09:12:28;;;;;;;8.30;2.00;;;;;;;27.62;16.96;100818.02;105422;1262;72835;-73
2023/05/04 09:15:17;;;;;;;9.60;2.20;;;;;;;27.52;17.10;100816.15;105565;1260;68162;-72
2023/05/04 09:18:08;;;;;;;7.80;2.00;;;;;;;27.33;17.50;100819.15;105677;1258;72720;-74
2023/05/04 09:20:55;;;;;;;8.70;2.00;;;;;;;27.09;17.67;100815.16;105965;1262;59236;-75
2023/05/04 09:23:47;;;;;;;9.40;1.90;;;;;;;26.55;17.73;100817.19;105787;1258;59428;-74
2023/05/04 09:26:34;;;;;;;11.20;1.60;;;;;;;25.81;18.32;100818.17;105955;1253;72217;-75
2023/05/04 09:29:24;;;;;;;8.70;1.80;;;;;;;25.80;18.90;100809.20;105711;1264;68164;-74
2023/05/04 09:32:15;;;;;;;7.70;1.90;;;;;;;25.99;18.62;100803.27;105852;1264;74375;-75
2023/05/04 09:35:04;;;;;;;7.00;2.00;;;;;;;26.43;18.36;100807.82;105632;1259;59350;-75
2023/05/04 09:37:51;;;;;;;8.20;1.70;;;;;;;26.76;17.94;100807.08;105642;1264;59372;-73
2023/05/04 09:47:18;;;;;;;8.80;2.30;;;;;;;27.00;19.49;100810.57;102577;1297;618068;-73
2023/05/04 09:50:28;;;;;;;10.10;2.70;;;;;;;27.11;19.25;100804.14;105415;1260;59245;-75
2023/05/04 09:53:18;;;;;;;9.00;2.40;;;;;;;27.29;19.52;100800.42;105716;1264;60292;-74
2023/05/04 09:56:23;;;;;;;9.30;2.50;;;;;;;27.41;19.75;100798.25;105553;1260;70492;-76
2023/05/04 09:59:12;;;;;;;9.20;2.00;;;;;;;27.84;18.57;100796.88;105570;1261;66620;-75
2023/05/04 10:02:00;;;;;;;12.10;2.60;;;;;;;28.03;17.99;100787.02;105217;1269;71173;-76
2023/05/04 10:05:09;;;;;;;12.40;2.60;;;;;;;28.20;18.25;100795.83;105451;1263;59298;-76
2023/05/04 10:07:59;;;;;;;9.00;2.30;;;;;;;28.54;18.45;100791.67;105229;1270;59454;-74
2023/05/04 10:10:47;;;;;;;12.90;2.20;;;;;;;28.69;18.11;100792.35;105317;1264;70971;-74
2023/05/04 10:13:34;;;;;;;8.00;2.20;;;;;;;28.75;18.80;100791.89;105022;1264;66554;-67
2023/05/04 10:16:55;;;;;;;8.50;2.50;;;;;;;28.77;18.64;100789.22;106056;1262;72603;-71
2023/05/04 10:20:38;;;;;;;8.30;2.50;;;;;;;28.69;18.60;100787.16;105469;1263;59412;-71
2023/05/04 10:23:50;;;;;;;7.60;2.00;;;;;;;28.49;18.41;100778.23;105195;1266;59362;-72
2023/05/04 10:27:07;;;;;;;11.30;2.80;;;;;;;28.33;18.39;100778.63;105531;1264;71440;-70
2023/05/04 10:30:00;;;;;;;8.10;2.00;;;;;;;28.47;18.64;100778.29;105391;1265;68209;-67
2023/05/04 10:32:57;;;;;;;9.80;2.10;;;;;;;28.77;18.05;100781.13;105810;1258;73090;-66
2023/05/04 10:35:52;;;;;;;10.20;2.20;;;;;;;28.70;18.56;100782.70;105783;1258;59275;-67
2023/05/04 10:38:40;;;;;;;8.90;1.90;;;;;;;29.03;18.36;100781.53;105369;1257;60163;-67
2023/05/04 10:41:27;;;;;;;9.50;2.20;;;;;;;29.43;17.96;100784.13;105889;1256;71974;-64
2023/05/04 10:44:13;;;;;;;10.40;1.90;;;;;;;29.48;17.89;100783.83;105727;1257;68137;-65
2023/05/04 10:47:08;;;;;;;11.10;2.20;;;;;;;29.58;17.86;100785.41;106129;1254;73165;-68
2023/05/04 10:50:10;;;;;;;8.00;1.90;;;;;;;29.76;17.69;100778.02;106185;1258;59321;-68
2023/05/04 10:52:57;;;;;;;11.00;2.00;;;;;;;29.93;16.35;100778.44;105584;1254;60205;-64
2023/05/04 10:55:48;;;;;;;8.20;1.70;;;;;;;29.85;15.59;100770.84;105748;1254;72318;-68
2023/05/04 10:58:35;;;;;;;7.80;1.60;;;;;;;29.70;14.07;100771.17;105471;1254;66552;-69
2023/05/04 11:01:22;;;;;;;6.90;1.40;;;;;;;29.74;14.18;100766.88;105613;1262;72669;-68
2023/05/04 11:04:21;;;;;;;6.60;1.40;;;;;;;29.76;14.42;100764.30;106039;1259;59202;-68
2023/05/04 11:07:08;;;;;;;6.80;1.70;;;;;;;29.60;13.97;100767.40;105718;1260;60099;-69
2023/05/04 11:09:55;;;;;;;6.60;1.70;;;;;;;29.06;14.45;100764.20;105837;1257;71546;-67
2023/05/04 11:12:43;;;;;;;6.50;1.40;;;;;;;28.62;15.86;100764.16;105895;1259;68205;-67
2023/05/04 11:15:31;;;;;;;6.30;1.60;;;;;;;27.94;15.51;100768.86;105660;1264;71926;-67
2023/05/04 11:18:32;;;;;;;7.10;1.80;;;;;;;27.11;15.85;100769.19;105787;1258;59336;-67
2023/05/04 11:21:24;;;;;;;7.30;1.70;;;;;;;26.23;16.36;100772.67;105757;1260;59373;-68
2023/05/04 11:24:13;;;;;;;7.30;1.80;;;;;;;25.28;17.71;100778.23;106146;1254;72063;-68
2023/05/04 21:01:28;;;;;;;7.60;2.80;;;;;;;6.00;87.58;100910.03;102697;1291;600923;-70
2023/05/04 21:04:17;;;;;;;9.70;2.90;;;;;;;5.98;86.96;100911.04;104964;1266;59350;-71
2023/05/04 21:07:08;;;;;;;7.70;2.60;;;;;;;5.93;86.88;100911.06;104773;1270;59276;-72
2023/05/04 21:09:57;;;;;;;8.30;2.30;;;;;;;5.91;86.82;100910.99;105763;1254;69019;-71
2023/05/04 21:12:46;;;;;;;6.70;2.60;;;;;;;5.87;86.67;100912.71;105679;1254;66652;-72
2023/05/04 21:15:35;;;;;;;9.10;2.50;;;;;;;5.83;86.12;100911.86;105872;1257;212152;-70
2023/05/04 21:18:24;;;;;;;7.50;2.40;;;;;;;5.81;86.17;100908.59;105713;1258;59247;-71
2023/05/04 21:21:13;;;;;;;8.10;2.70;;;;;;;5.77;86.02;100903.98;105919;1251;60059;-69
2023/05/04 21:24:02;;;;;;;6.80;2.50;;;;;;;5.73;85.46;100904.16;106108;1251;69040;-71
2023/05/04 21:26:50;;;;;;;8.60;2.30;;;;;;;5.68;84.80;100903.73;105682;1251;66436;-71
2023/05/04 21:29:40;;;;;;;8.40;2.20;;;;;;;5.67;84.46;100902.34;105929;1253;72968;-70
2023/05/04 21:32:29;;;;;;;6.50;2.30;;;;;;;5.68;84.55;100903.91;105673;1254;59332;-72
2023/05/04 21:35:21;;;;;;;5.90;2.10;;;;;;;5.67;83.80;100903.91;105593;1254;59804;-71
2023/05/04 21:38:09;;;;;;;8.20;2.40;;;;;;;5.66;83.10;100900.46;105999;1257;71479;-70
2023/05/04 21:41:13;;;;;;;7.10;2.30;;;;;;;5.65;82.96;100899.59;105520;1254;68197;-70
2023/05/04 21:44:01;;;;;;;7.50;2.10;;;;;;;5.65;82.56;100897.67;105700;1256;72721;-71
2023/05/04 21:46:50;;;;;;;7.10;2.30;;;;;;;5.63;82.60;100895.98;105674;1254;59378;-70
2023/05/04 21:49:38;;;;;;;10.00;2.20;;;;;;;5.60;81.78;100890.99;105663;1254;60612;-70
2023/05/04 21:52:26;;;;;;;8.00;2.40;;;;;;;5.59;81.82;100892.65;105722;1259;69860;-70
2023/05/04 21:55:17;;;;;;;7.60;2.50;;;;;;;5.58;81.21;100885.63;105894;1254;67635;-69
2023/05/04 21:58:05;;;;;;;7.60;2.20;;;;;;;5.59;80.93;100888.96;104943;1255;1002945;-70
2023/05/04 22:00:54;;;;;;;9.20;2.30;;;;;;;5.57;80.45;100883.40;105967;1254;59319;-70
2023/05/04 22:03:43;;;;;;;7.60;2.50;;;;;;;5.56;80.39;100882.22;105497;1253;60051;-70
2023/05/04 22:06:33;;;;;;;7.40;2.20;;;;;;;5.55;79.83;100883.13;105686;1258;70165;-71
2023/05/04 22:09:21;;;;;;;5.90;2.20;;;;;;;5.54;79.19;100886.54;105721;1258;67672;-70
2023/05/04 22:12:13;;;;;;;9.10;2.80;;;;;;;5.51;78.41;100886.13;105799;1253;72653;-70
2023/05/04 22:15:01;;;;;;;8.10;2.50;;;;;;;5.48;78.53;100885.55;105803;1253;59219;-71
2023/05/04 22:17:49;;;;;;;7.40;2.20;;;;;;;5.44;77.88;100888.17;105738;1253;60383;-72
2023/05/04 22:20:40;;;;;;;8.50;2.00;;;;;;;5.42;78.36;100895.33;105696;1252;71483;-71
2023/05/04 22:23:28;;;;;;;7.10;2.20;;;;;;;5.40;78.17;100896.98;106189;1253;66834;-72
2023/05/04 22:26:16;;;;;;;8.90;2.30;;;;;;;5.39;77.90;100899.30;106364;1260;74553;-70
2023/05/04 22:29:05;;;;;;;8.10;2.70;;;;;;;5.39;77.79;100894.54;106213;1253;59710;-70
2023/05/04 22:31:55;;;;;;;7.50;2.60;;;;;;;5.38;77.71;100894.44;106509;1253;60281;-71
2023/05/04 22:34:45;;;;;;;8.20;2.40;;;;;;;5.38;77.72;100899.71;106225;1252;70227;-70
2023/05/04 22:37:33;;;;;;;10.20;2.10;;;;;;;5.38;77.66;100897.77;106238;1256;67992;-69
2023/05/04 22:40:21;;;;;;;11.20;3.00;;;;;;;5.40;77.53;100898.22;105761;1254;72387;-70
2023/05/04 22:43:09;;;;;;;6.30;2.20;;;;;;;5.39;77.32;100895.64;105786;1261;59652;-70
2023/05/04 22:45:58;;;;;;;7.40;2.00;;;;;;;5.35;76.92;100898.79;105703;1258;60345;-71
2023/05/04 22:48:46;;;;;;;9.40;2.20;;;;;;;5.33;77.46;100895.70;105616;1253;71428;-67
2023/05/04 22:51:35;;;;;;;8.20;2.20;;;;;;;5.31;77.38;100899.12;105705;1260;67457;-69
2023/05/04 22:54:23;;;;;;;7.30;1.90;;;;;;;5.27;77.44;100894.55;104842;1257;1003475;-68
2023/05/04 22:57:12;;;;;;;7.30;2.00;;;;;;;5.24;77.46;100890.45;105958;1253;59249;-68
2023/05/04 23:00:00;;;;;;;8.30;2.60;;;;;;;5.19;77.71;100887.13;105732;1253;60641;-68
2023/05/04 23:02:48;;;;;;;10.70;2.50;;;;;;;5.18;77.86;100887.34;104415;1253;1003313;-67
2023/05/04 23:05:37;;;;;;;7.60;2.10;;;;;;;5.19;78.32;100889.25;106003;1258;67094;-70
2023/05/04 23:08:25;;;;;;;7.60;2.30;;;;;;;5.18;78.40;100888.24;105690;1253;72052;-70
2023/05/04 23:11:18;;;;;;;10.10;2.50;;;;;;;5.18;78.39;100891.60;105453;1256;59456;-72
2023/05/04 23:14:06;;;;;;;11.40;2.30;;;;;;;5.18;78.58;100894.91;105439;1261;60734;-70
2023/05/04 23:16:55;;;;;;;7.90;2.20;;;;;;;5.18;78.65;100892.81;105457;1256;69204;-69
2023/05/04 23:19:43;;;;;;;6.80;2.20;;;;;;;5.18;78.97;100897.21;104724;1256;1002976;-71
2023/05/04 23:22:31;;;;;;;10.20;2.40;;;;;;;5.19;79.30;100895.77;105520;1261;73852;-70
2023/05/04 23:25:20;;;;;;;8.00;2.40;;;;;;;5.20;79.36;100894.46;105360;1256;59687;-70
2023/05/04 23:28:09;;;;;;;7.60;2.40;;;;;;;5.23;79.98;100892.80;105503;1264;60176;-70
2023/05/04 23:30:57;;;;;;;8.90;2.80;;;;;;;5.24;79.87;100894.83;105348;1255;70148;-70
2023/05/04 23:33:45;;;;;;;7.40;2.40;;;;;;;5.24;81.21;100888.33;105309;1256;66927;-71
2023/05/04 23:36:33;;;;;;;9.30;2.70;;;;;;;5.27;81.66;100891.04;105329;1264;72868;-71
2023/05/04 23:39:21;;;;;;;9.40;2.70;;;;;;;5.27;81.72;100879.77;105462;1256;59236;-71
2023/05/04 23:42:09;;;;;;;10.10;2.50;;;;;;;5.27;82.33;100878.70;104710;1263;1003103;-71
2023/05/04 23:44:58;;;;;;;7.40;2.40;;;;;;;5.29;82.90;100876.50;105584;1253;71192;-71
2023/05/04 23:47:46;;;;;;;8.10;2.30;;;;;;;5.30;83.59;100881.40;105550;1257;67920;-69
2023/05/04 23:50:34;;;;;;;10.40;2.90;;;;;;;5.30;84.10;100876.12;105725;1253;73787;-67
2023/05/04 23:53:23;;;;;;;8.60;2.80;;;;;;;5.30;84.33;100872.05;105622;1261;59191;-68
2023/05/04 23:56:13;;;;;;;8.90;2.60;;;;;;;5.32;84.90;100863.52;105570;1253;61666;-69
2023/05/04 23:59:01;;;;;;;10.10;2.90;;;;;;;5.33;85.61;100872.11;105648;1253;69832;-69
